Time,TemperatureF,DewpointF,PressureIn,WindDirection,WindDirectionDegrees,WindSpeedMPH,WindSpeedGustMPH,Humidity,HourlyPrecipIn,Conditions,Clouds,dailyrainin,SolarRadiationWatts/m^2,SoftwareType,DateUTC
2015-05-04 00:05:00,53.1,8.0,30.23,East,89,0.0,0.0,16,0.00,,,0.00,0,Wunderground v.1.15,2015-05-04 04:05:00,
2015-05-04 00:11:00,52.9,6.4,30.24,East,89,0.0,0.0,15,0.00,,,0.00,0,Wunderground v.1.15,2015-05-04 04:11:00,
2015-05-04 00:17:00,52.6,-0.5,30.24,East,89,0.0,0.0,11,0.00,,,0.00,0,Wunderground v.1.15,2015-05-04 04:17:00,
2015-05-04 00:23:00,52.4,-0.7,30.24,East,89,0.0,0.0,11,0.00,,,0.00,0,Wunderground v.1.15,2015-05-04 04:23:00,
2015-05-04 00:29:00,52.2,-2.9,30.24,East,89,0.0,0.0,10,0.00,,,0.00,0,Wunderground v.1.15,2015-05-04 04:29:00,
2015-05-04 00:34:00,52.0,0.9,30.24,East,89,0.0,0.0,12,0.00,,,0.00,0,Wunderground v.1.15,2015-05-04 04:34:00,
2015-05-04 00:40:00,51.8,0.7,30.24,East,89,0.0,0.0,12,0.00,,,0.00,0,Wunderground v.1.15,2015-05-04 04:40:00,
2015-05-04 00:46:00,51.7,0.6,30.24,East,89,0.0,0.0,12,0.00,,,0.00,0,Wunderground v.1.15,2015-05-04 04:46:00,
2015-05-04 00:52:00,51.5,-3.4,30.24,East,89,0.0,0.0,10,0.00,,,0.00,0,Wunderground v.1.15,2015-05-04 04:52:00,
2015-05-04 00:58:00,51.3,-8.2,30.24,East,89,0.0,0.0,8,0.00,,,0.00,0,Wunderground v.1.15,2015-05-04 04:58:00,
2015-05-04 01:04:00,51.2,-99.9,30.24,East,89,0.0,0.0,0,0.00,,,0.00,0,Wunderground v.1.15,2015-05-04 05:04:00,
2015-05-04 01:10:00,50.9,-99.9,30.24,East,89,0.0,0.0,0,0.00,,,0.00,0,Wunderground v.1.15,2015-05-04 05:10:00,
2015-05-04 01:16:00,50.8,-99.9,30.24,East,89,0.0,0.0,0,0.00,,,0.00,0,Wunderground v.1.15,2015-05-04 05:16:00,
2015-05-04 01:21:00,50.8,-99.9,30.24,East,89,0.0,0.0,0,0.00,,,0.00,0,Wunderground v.1.15,2015-05-04 05:21:00,
2015-05-04 01:27:00,50.5,-99.9,30.24,East,89,0.0,0.0,0,0.00,,,0.00,0,Wunderground v.1.15,2015-05-04 05:27:00,
2015-05-04 01:33:00,50.4,-99.9,30.24,East,89,0.0,0.0,0,0.00,,,0.00,0,Wunderground v.1.15,2015-05-04 05:33:00,
2015-05-04 01:39:00,50.2,-99.9,30.24,East,89,0.0,0.0,0,0.00,,,0.00,0,Wunderground v.1.15,2015-05-04 05:39:00,
2015-05-04 01:45:00,50.1,-99.9,30.24,East,89,0.0,0.0,0,0.00,,,0.00,0,Wunderground v.1.15,2015-05-04 05:45:00,
2015-05-04 01:51:00,49.9,-99.9,30.24,East,89,0.0,0.0,0,0.00,,,0.00,0,Wunderground v.1.15,2015-05-04 05:51:00,
2015-05-04 01:57:00,49.8,-99.9,30.24,East,89,0.0,0.0,0,0.00,,,0.00,0,Wunderground v.1.15,2015-05-04 05:57:00,
2015-05-04 02:02:00,49.6,-99.9,30.24,East,89,0.0,0.0,0,0.00,,,0.00,0,Wunderground v.1.15,2015-05-04 06:02:00,
2015-05-04 02:07:00,49.6,-99.9,30.24,East,89,0.0,0.0,0,0.00,,,0.00,0,Wunderground v.1.15,2015-05-04 06:07:00,
2015-05-04 02:12:00,49.4,-99.9,30.24,East,89,0.0,0.0,0,0.00,,,0.00,0,Wunderground v.1.15,2015-05-04 06:12:00,
2015-05-04 02:17:00,49.3,-99.9,30.24,East,89,0.0,0.0,0,0.00,,,0.00,0,Wunderground v.1.15,2015-05-04 06:17:00,
2015-05-04 02:22:00,49.2,-99.9,30.24,East,89,0.0,0.0,0,0.00,,,0.00,0,Wunderground v.1.15,2015-05-04 06:22:00,
2015-05-04 02:27:00,49.1,-99.9,30.24,East,89,0.0,0.0,0,0.00,,,0.00,0,Wunderground v.1.15,2015-05-04 06:27:00,
2015-05-04 02:32:00,49.0,-99.9,30.24,East,89,0.0,0.0,0,0.00,,,0.00,0,Wunderground v.1.15,2015-05-04 06:32:00,
2015-05-04 02:37:00,48.9,-99.9,30.24,East,89,0.0,0.0,0,0.00,,,0.00,0,Wunderground v.1.15,2015-05-04 06:37:00,
2015-05-04 02:42:00,48.8,-99.9,30.24,East,89,0.0,0.0,0,0.00,,,0.00,0,Wunderground v.1.15,2015-05-04 06:42:00,
2015-05-04 02:47:00,48.7,-99.9,30.24,East,89,0.0,0.0,0,0.00,,,0.00,0,Wunderground v.1.15,2015-05-04 06:47:00,
2015-05-04 02:52:00,48.6,-99.9,30.24,East,89,0.0,0.0,0,0.00,,,0.00,0,Wunderground v.1.15,2015-05-04 06:52:00,
2015-05-04 02:57:00,48.5,-99.9,30.24,East,89,0.0,0.0,0,0.00,,,0.00,0,Wunderground v.1.15,2015-05-04 06:57:00,
2015-05-04 03:02:00,48.4,-99.9,30.24,East,89,0.0,0.0,0,0.00,,,0.00,0,Wunderground v.1.15,2015-05-04 07:02:00,
2015-05-04 03:07:00,48.3,-99.9,30.24,East,89,0.0,0.0,0,0.00,,,0.00,0,Wunderground v.1.15,2015-05-04 07:07:00,
2015-05-04 03:12:00,48.2,-99.9,30.24,East,89,0.0,0.0,0,0.00,,,0.00,0,Wunderground v.1.15,2015-05-04 07:12:00,
2015-05-04 03:17:00,48.2,-99.9,30.24,East,89,0.0,0.0,0,0.00,,,0.00,0,Wunderground v.1.15,2015-05-04 07:17:00,
2015-05-04 03:22:00,48.1,-99.9,30.24,East,89,0.0,0.0,0,0.00,,,0.00,0,Wunderground v.1.15,2015-05-04 07:22:00,
2015-05-04 03:27:00,47.9,-99.9,30.24,East,89,0.0,0.0,0,0.00,,,0.00,0,Wunderground v.1.15,2015-05-04 07:27:00,
2015-05-04 03:32:00,47.7,-99.9,30.24,East,89,0.0,0.0,0,0.00,,,0.00,0,Wunderground v.1.15,2015-05-04 07:32:00,
2015-05-04 03:37:00,47.6,-99.9,30.24,East,89,0.0,0.0,0,0.00,,,0.00,0,Wunderground v.1.15,2015-05-04 07:37:00,
2015-05-04 03:42:00,47.5,-99.9,30.23,East,89,0.0,0.0,0,0.00,,,0.00,0,Wunderground v.1.15,2015-05-04 07:42:00,
2015-05-04 03:47:00,47.4,-99.9,30.24,East,89,0.0,0.0,0,0.00,,,0.00,0,Wunderground v.1.15,2015-05-04 07:47:00,
2015-05-04 03:52:00,47.3,-99.9,30.24,East,89,0.0,0.0,0,0.00,,,0.00,0,Wunderground v.1.15,2015-05-04 07:52:00,
2015-05-04 03:57:00,47.2,-99.9,30.24,East,89,0.0,0.0,0,0.00,,,0.00,0,Wunderground v.1.15,2015-05-04 07:57:00,
2015-05-04 04:02:00,47.1,-99.9,30.24,East,89,0.0,0.0,0,0.00,,,0.00,0,Wunderground v.1.15,2015-05-04 08:02:00,
2015-05-04 04:07:00,47.0,-99.9,30.24,East,89,0.0,0.0,0,0.00,,,0.00,0,Wunderground v.1.15,2015-05-04 08:07:00,
2015-05-04 04:12:00,46.9,-99.9,30.24,East,89,0.0,0.0,0,0.00,,,0.00,0,Wunderground v.1.15,2015-05-04 08:12:00,
2015-05-04 04:17:00,46.7,-99.9,30.24,East,89,0.0,0.0,0,0.00,,,0.00,0,Wunderground v.1.15,2015-05-04 08:17:00,
2015-05-04 04:22:00,46.6,-99.9,30.25,East,89,0.0,0.0,0,0.00,,,0.00,0,Wunderground v.1.15,2015-05-04 08:22:00,
2015-05-04 04:27:00,46.5,-99.9,30.24,East,89,0.0,0.0,0,0.00,,,0.00,0,Wunderground v.1.15,2015-05-04 08:27:00,
2015-05-04 04:32:00,46.3,-99.9,30.24,East,89,0.0,0.0,0,0.00,,,0.00,0,Wunderground v.1.15,2015-05-04 08:32:00,
2015-05-04 04:37:00,46.2,-99.9,30.25,East,89,0.0,0.0,0,0.00,,,0.00,0,Wunderground v.1.15,2015-05-04 08:37:00,
2015-05-04 04:42:00,46.1,-99.9,30.25,East,89,0.0,0.0,0,0.00,,,0.00,0,Wunderground v.1.15,2015-05-04 08:42:00,
2015-05-04 04:47:00,46.0,-99.9,30.25,East,89,0.0,0.0,0,0.00,,,0.00,0,Wunderground v.1.15,2015-05-04 08:47:00,
2015-05-04 04:52:00,45.9,-99.9,30.25,East,89,0.0,0.0,0,0.00,,,0.00,0,Wunderground v.1.15,2015-05-04 08:52:00,
2015-05-04 04:57:00,45.8,-99.9,30.25,East,89,0.0,0.0,0,0.00,,,0.00,0,Wunderground v.1.15,2015-05-04 08:57:00,
2015-05-04 05:02:00,45.7,-99.9,30.25,East,89,0.0,0.0,0,0.00,,,0.00,0,Wunderground v.1.15,2015-05-04 09:02:00,
2015-05-04 05:07:00,45.6,-99.9,30.25,East,89,0.0,0.0,0,0.00,,,0.00,0,Wunderground v.1.15,2015-05-04 09:07:00,
2015-05-04 05:12:00,45.5,-99.9,30.25,East,89,0.0,0.0,0,0.00,,,0.00,0,Wunderground v.1.15,2015-05-04 09:12:00,
2015-05-04 05:17:00,45.4,-99.9,30.25,East,89,0.0,0.0,0,0.00,,,0.00,0,Wunderground v.1.15,2015-05-04 09:17:00,
2015-05-04 05:22:00,45.4,-99.9,30.26,East,89,0.0,0.0,0,0.00,,,0.00,0,Wunderground v.1.15,2015-05-04 09:22:00,
2015-05-04 05:27:00,45.2,-99.9,30.26,East,89,0.0,0.0,0,0.00,,,0.00,0,Wunderground v.1.15,2015-05-04 09:27:00,
2015-05-04 05:32:00,45.1,-99.9,30.26,East,89,0.0,0.0,0,0.00,,,0.00,0,Wunderground v.1.15,2015-05-04 09:32:00,
2015-05-04 05:37:00,45.0,-99.9,30.26,East,89,0.0,0.0,0,0.00,,,0.00,0,Wunderground v.1.15,2015-05-04 09:37:00,
2015-05-04 05:42:00,44.9,-99.9,30.27,East,89,0.0,0.0,0,0.00,,,0.00,0,Wunderground v.1.15,2015-05-04 09:42:00,
2015-05-04 05:47:00,44.7,-99.9,30.27,East,89,0.0,0.0,0,0.00,,,0.00,0,Wunderground v.1.15,2015-05-04 09:47:00,
2015-05-04 05:52:00,44.6,-99.9,30.27,East,89,0.0,0.0,0,0.00,,,0.00,0,Wunderground v.1.15,2015-05-04 09:52:00,
2015-05-04 05:57:00,44.5,-99.9,30.27,East,89,0.0,0.0,0,0.00,,,0.00,0,Wunderground v.1.15,2015-05-04 09:57:00,
2015-05-04 06:02:00,44.3,-99.9,30.27,East,89,0.0,0.0,0,0.00,,,0.00,0,Wunderground v.1.15,2015-05-04 10:02:00,
2015-05-04 06:07:00,44.2,-99.9,30.27,East,89,0.0,0.0,0,0.00,,,0.00,0,Wunderground v.1.15,2015-05-04 10:07:00,
2015-05-04 06:12:00,44.2,-99.9,30.28,East,89,0.0,0.0,0,0.00,,,0.00,0,Wunderground v.1.15,2015-05-04 10:12:00,
2015-05-04 06:17:00,44.1,-99.9,30.28,East,89,0.0,0.0,0,0.00,,,0.00,0,Wunderground v.1.15,2015-05-04 10:17:00,
2015-05-04 06:22:00,44.0,-99.9,30.28,East,89,0.0,0.0,0,0.00,,,0.00,0,Wunderground v.1.15,2015-05-04 10:22:00,
2015-05-04 06:27:00,44.0,-99.9,30.28,East,89,0.0,0.0,0,0.00,,,0.00,0,Wunderground v.1.15,2015-05-04 10:27:00,
2015-05-04 06:32:00,43.9,-99.9,30.29,East,89,0.0,0.0,0,0.00,,,0.00,0,Wunderground v.1.15,2015-05-04 10:32:00,
2015-05-04 06:37:00,43.8,-99.9,30.29,East,89,0.0,0.0,0,0.00,,,0.00,0,Wunderground v.1.15,2015-05-04 10:37:00,
2015-05-04 06:42:00,43.8,-99.9,30.29,East,89,0.0,0.0,0,0.00,,,0.00,5,Wunderground v.1.15,2015-05-04 10:42:00,
2015-05-04 06:47:00,43.7,-99.9,30.29,East,89,0.0,0.0,0,0.00,,,0.00,7,Wunderground v.1.15,2015-05-04 10:47:00,
2015-05-04 06:52:00,43.6,-99.9,30.30,East,89,0.0,0.0,0,0.00,,,0.00,9,Wunderground v.1.15,2015-05-04 10:52:00,
2015-05-04 06:57:00,43.5,-99.9,30.30,East,89,0.0,0.0,0,0.00,,,0.00,12,Wunderground v.1.15,2015-05-04 10:57:00,
2015-05-04 07:02:00,43.4,-99.9,30.30,East,89,0.0,0.0,0,0.00,,,0.00,16,Wunderground v.1.15,2015-05-04 11:02:00,
2015-05-04 07:07:00,43.3,-99.9,30.31,East,89,0.0,0.0,0,0.00,,,0.00,26,Wunderground v.1.15,2015-05-04 11:07:00,
2015-05-04 07:12:00,43.2,-99.9,30.31,East,89,0.0,0.0,0,0.00,,,0.00,35,Wunderground v.1.15,2015-05-04 11:12:00,
2015-05-04 07:17:00,43.2,-99.9,30.31,East,89,0.0,0.0,0,0.00,,,0.00,44,Wunderground v.1.15,2015-05-04 11:17:00,
2015-05-04 07:22:00,43.1,-99.9,30.31,East,89,0.0,0.0,0,0.00,,,0.00,54,Wunderground v.1.15,2015-05-04 11:22:00,
2015-05-04 07:27:00,43.1,-99.9,30.31,East,89,0.0,0.0,0,0.00,,,0.00,67,Wunderground v.1.15,2015-05-04 11:27:00,
2015-05-04 07:32:00,43.1,-99.9,30.31,East,89,0.0,0.0,0,0.00,,,0.00,81,Wunderground v.1.15,2015-05-04 11:32:00,
2015-05-04 07:37:00,43.1,-99.9,30.32,East,89,0.0,0.0,0,0.00,,,0.00,93,Wunderground v.1.15,2015-05-04 11:37:00,
2015-05-04 07:42:00,43.1,-99.9,30.32,East,89,0.0,0.0,0,0.00,,,0.00,104,Wunderground v.1.15,2015-05-04 11:42:00,
2015-05-04 07:47:00,43.1,-99.9,30.32,East,89,0.0,0.0,0,0.00,,,0.00,118,Wunderground v.1.15,2015-05-04 11:47:00,
2015-05-04 07:52:00,43.2,-99.9,30.32,East,89,0.0,0.0,0,0.00,,,0.00,139,Wunderground v.1.15,2015-05-04 11:52:00,
2015-05-04 07:57:00,43.3,-99.9,30.32,East,89,0.0,0.0,0,0.00,,,0.00,47,Wunderground v.1.15,2015-05-04 11:57:00,
2015-05-04 08:02:00,43.4,-99.9,30.32,East,89,0.0,0.0,0,0.00,,,0.00,47,Wunderground v.1.15,2015-05-04 12:02:00,
2015-05-04 08:07:00,43.6,-99.9,30.32,East,89,0.0,0.0,0,0.00,,,0.00,47,Wunderground v.1.15,2015-05-04 12:07:00,
2015-05-04 08:13:00,43.8,-99.9,30.32,East,89,0.0,0.0,0,0.00,,,0.00,49,Wunderground v.1.15,2015-05-04 12:13:00,
2015-05-04 08:18:00,44.0,-99.9,30.32,East,89,0.0,0.0,0,0.00,,,0.00,51,Wunderground v.1.15,2015-05-04 12:18:00,
2015-05-04 08:23:00,44.2,-99.9,30.33,East,89,0.0,0.0,0,0.00,,,0.00,53,Wunderground v.1.15,2015-05-04 12:23:00,
2015-05-04 08:28:00,44.4,-99.9,30.32,East,89,0.0,0.0,0,0.00,,,0.00,54,Wunderground v.1.15,2015-05-04 12:28:00,
2015-05-04 08:33:00,44.7,-99.9,30.33,East,89,0.0,0.0,0,0.00,,,0.00,54,Wunderground v.1.15,2015-05-04 12:33:00,
2015-05-04 08:38:00,45.2,-99.9,30.33,East,89,0.0,0.0,0,0.00,,,0.00,58,Wunderground v.1.15,2015-05-04 12:38:00,
2015-05-04 08:43:00,45.5,-99.9,30.33,East,89,0.0,0.0,0,0.00,,,0.00,163,Wunderground v.1.15,2015-05-04 12:43:00,
2015-05-04 08:48:00,45.8,-99.9,30.33,East,89,0.0,0.0,0,0.00,,,0.00,318,Wunderground v.1.15,2015-05-04 12:48:00,
2015-05-04 08:53:00,46.2,-99.9,30.33,East,89,0.0,0.0,0,0.00,,,0.00,336,Wunderground v.1.15,2015-05-04 12:53:00,
2015-05-04 08:58:00,46.9,-99.9,30.33,East,89,0.0,0.0,0,0.00,,,0.00,348,Wunderground v.1.15,2015-05-04 12:58:00,
2015-05-04 09:03:00,47.5,-99.9,30.33,East,89,0.0,0.0,0,0.00,,,0.00,371,Wunderground v.1.15,2015-05-04 13:03:00,
2015-05-04 09:08:00,48.1,-99.9,30.34,East,89,0.0,0.0,0,0.00,,,0.00,399,Wunderground v.1.15,2015-05-04 13:08:00,
2015-05-04 09:13:00,48.8,-99.9,30.34,East,89,0.0,1.0,0,0.00,,,0.00,424,Wunderground v.1.15,2015-05-04 13:13:00,
2015-05-04 09:18:00,49.6,-99.9,30.34,East,89,0.0,1.0,0,0.00,,,0.00,441,Wunderground v.1.15,2015-05-04 13:18:00,
2015-05-04 09:23:00,50.3,-99.9,30.34,East,89,0.0,0.0,0,0.00,,,0.00,461,Wunderground v.1.15,2015-05-04 13:23:00,
2015-05-04 09:28:00,51.0,-99.9,30.33,East,89,0.0,0.0,0,0.00,,,0.00,480,Wunderground v.1.15,2015-05-04 13:28:00,
2015-05-04 09:33:00,52.0,-99.9,30.34,East,89,0.0,0.0,0,0.00,,,0.00,492,Wunderground v.1.15,2015-05-04 13:33:00,
2015-05-04 09:38:00,53.7,-99.9,30.34,WNW,300,0.0,1.0,0,0.00,,,0.00,510,Wunderground v.1.15,2015-05-04 13:38:00,
2015-05-04 09:43:00,56.1,-99.9,30.34,WNW,300,1.0,1.0,0,0.00,,,0.00,527,Wunderground v.1.15,2015-05-04 13:43:00,
2015-05-04 09:48:00,58.2,-99.9,30.34,WNW,300,0.0,1.0,0,0.00,,,0.00,541,Wunderground v.1.15,2015-05-04 13:48:00,
2015-05-04 09:53:00,59.4,-99.9,30.34,NW,325,0.0,0.0,0,0.00,,,0.00,559,Wunderground v.1.15,2015-05-04 13:53:00,
2015-05-04 09:58:00,60.2,-99.9,30.34,NW,308,0.0,0.0,0,0.00,,,0.00,573,Wunderground v.1.15,2015-05-04 13:58:00,
2015-05-04 10:03:00,61.0,-15.1,30.34,NW,320,0.0,1.0,4,0.00,,,0.00,589,Wunderground v.1.15,2015-05-04 14:03:00,
2015-05-04 10:08:00,61.8,13.6,30.34,SW,215,0.0,1.0,15,0.00,,,0.00,601,Wunderground v.1.15,2015-05-04 14:08:00,
2015-05-04 10:13:00,62.5,22.0,30.34,NNW,331,0.0,2.0,21,0.00,,,0.00,619,Wunderground v.1.15,2015-05-04 14:13:00,
2015-05-04 10:18:00,63.4,34.5,30.34,NNW,331,0.0,2.0,34,0.00,,,0.00,631,Wunderground v.1.15,2015-05-04 14:18:00,
2015-05-04 10:23:00,64.4,36.1,30.34,NNW,331,0.0,0.0,35,0.00,,,0.00,649,Wunderground v.1.15,2015-05-04 14:23:00,
2015-05-04 10:28:00,65.1,42.0,30.34,NNW,331,0.0,0.0,43,0.00,,,0.00,666,Wunderground v.1.15,2015-05-04 14:28:00,
2015-05-04 10:33:00,66.3,47.1,30.34,ESE,103,0.0,0.0,50,0.00,,,0.00,682,Wunderground v.1.15,2015-05-04 14:33:00,
2015-05-04 10:38:00,67.2,50.0,30.34,ESE,103,0.0,0.0,54,0.00,,,0.00,691,Wunderground v.1.15,2015-05-04 14:38:00,
2015-05-04 10:43:00,67.9,50.1,30.34,ENE,62,0.0,1.0,53,0.00,,,0.00,703,Wunderground v.1.15,2015-05-04 14:43:00,
2015-05-04 10:48:00,68.8,51.5,30.34,ENE,61,0.0,1.0,54,0.00,,,0.00,717,Wunderground v.1.15,2015-05-04 14:48:00,
2015-05-04 10:53:00,69.2,53.3,30.34,North,360,0.0,2.0,57,0.00,,,0.00,729,Wunderground v.1.15,2015-05-04 14:53:00,
2015-05-04 10:58:00,69.6,53.7,30.34,SW,229,0.0,2.0,57,0.00,,,0.00,744,Wunderground v.1.15,2015-05-04 14:58:00,
2015-05-04 11:03:00,70.1,53.7,30.34,WNW,302,3.0,3.0,56,0.00,,,0.00,758,Wunderground v.1.15,2015-05-04 15:03:00,
2015-05-04 11:08:00,70.4,54.0,30.34,WNW,296,0.0,4.0,56,0.00,,,0.00,780,Wunderground v.1.15,2015-05-04 15:08:00,
2015-05-04 11:13:00,70.8,54.3,30.34,WNW,286,0.0,3.0,56,0.00,,,0.00,803,Wunderground v.1.15,2015-05-04 15:13:00,
2015-05-04 11:18:00,71.1,55.1,30.34,North,355,0.0,3.0,57,0.00,,,0.00,872,Wunderground v.1.15,2015-05-04 15:18:00,
2015-05-04 11:23:00,71.5,53.5,30.34,WNW,297,0.0,5.0,53,0.00,,,0.00,276,Wunderground v.1.15,2015-05-04 15:23:00,
2015-05-04 11:28:00,71.6,53.6,30.34,NW,320,2.0,7.0,53,0.00,,,0.00,220,Wunderground v.1.15,2015-05-04 15:28:00,
2015-05-04 11:33:00,71.6,53.6,30.34,NW,309,2.0,7.0,53,0.00,,,0.00,911,Wunderground v.1.15,2015-05-04 15:33:00,
2015-05-04 11:38:00,71.8,53.7,30.34,NW,311,0.0,7.0,53,0.00,,,0.00,911,Wunderground v.1.15,2015-05-04 15:38:00,
2015-05-04 11:43:00,71.9,53.8,30.33,North,350,4.0,5.0,53,0.00,,,0.00,204,Wunderground v.1.15,2015-05-04 15:43:00,
2015-05-04 11:48:00,72.0,53.9,30.33,NW,313,0.0,7.0,53,0.00,,,0.00,947,Wunderground v.1.15,2015-05-04 15:48:00,
2015-05-04 11:53:00,72.2,53.6,30.33,SE,131,0.0,1.0,52,0.00,,,0.00,998,Wunderground v.1.15,2015-05-04 15:53:00,
2015-05-04 11:58:00,72.6,54.0,30.34,ENE,60,0.0,2.0,52,0.00,,,0.00,257,Wunderground v.1.15,2015-05-04 15:58:00,
2015-05-04 12:03:00,73.0,52.7,30.33,SSW,199,0.0,0.0,49,0.00,,,0.00,278,Wunderground v.1.15,2015-05-04 16:03:00,
2015-05-04 12:08:00,73.4,50.8,30.33,SE,126,0.0,6.0,45,0.00,,,0.00,332,Wunderground v.1.15,2015-05-04 16:08:00,
2015-05-04 12:13:00,73.7,51.6,30.33,SE,126,0.0,1.0,46,0.00,,,0.00,290,Wunderground v.1.15,2015-05-04 16:13:00,
2015-05-04 12:18:00,73.9,51.2,30.33,NNW,334,0.0,4.0,45,0.00,,,0.00,1085,Wunderground v.1.15,2015-05-04 16:18:00,
2015-05-04 12:23:00,74.6,54.2,30.33,South,191,1.0,4.0,49,0.00,,,0.00,1025,Wunderground v.1.15,2015-05-04 16:23:00,
2015-05-04 12:28:00,75.5,52.7,30.33,WNW,293,4.0,5.0,45,0.00,,,0.00,1067,Wunderground v.1.15,2015-05-04 16:28:00,
2015-05-04 12:33:00,75.6,51.5,30.33,North,350,5.0,8.0,43,0.00,,,0.00,353,Wunderground v.1.15,2015-05-04 16:33:00,
2015-05-04 12:38:00,75.0,51.0,30.33,WNW,297,0.0,8.0,43,0.00,,,0.00,315,Wunderground v.1.15,2015-05-04 16:38:00,
2015-05-04 12:43:00,74.6,51.9,30.33,West,263,3.0,7.0,45,0.00,,,0.00,323,Wunderground v.1.15,2015-05-04 16:43:00,
2015-05-04 12:48:00,74.4,51.1,30.32,WNW,290,0.0,7.0,44,0.00,,,0.00,329,Wunderground v.1.15,2015-05-04 16:48:00,
2015-05-04 12:53:00,74.7,51.9,30.32,West,279,0.0,2.0,45,0.00,,,0.00,1183,Wunderground v.1.15,2015-05-04 16:53:00,
2015-05-04 12:58:00,75.3,52.5,30.32,SSE,155,0.0,2.0,45,0.00,,,0.00,1109,Wunderground v.1.15,2015-05-04 16:58:00,
2015-05-04 13:03:00,76.1,53.2,30.32,WSW,250,0.0,1.0,45,0.00,,,0.00,1171,Wunderground v.1.15,2015-05-04 17:03:00,
2015-05-04 13:08:00,76.6,53.1,30.32,WNW,298,2.0,5.0,44,0.00,,,0.00,1109,Wunderground v.1.15,2015-05-04 17:08:00,
2015-05-04 13:13:00,77.1,52.9,30.32,SSE,160,6.0,7.0,43,0.00,,,0.00,311,Wunderground v.1.15,2015-05-04 17:13:00,
2015-05-04 13:18:00,77.1,52.2,30.32,SSE,151,0.0,7.0,42,0.00,,,0.00,455,Wunderground v.1.15,2015-05-04 17:18:00,
2015-05-04 13:23:00,77.3,50.4,30.31,West,264,5.0,9.0,39,0.00,,,0.00,1063,Wunderground v.1.15,2015-05-04 17:23:00,
2015-05-04 13:28:00,77.0,50.8,30.31,NNW,344,3.0,9.0,40,0.00,,,0.00,1056,Wunderground v.1.15,2015-05-04 17:28:00,
2015-05-04 13:33:00,76.9,50.7,30.31,NW,321,4.0,12.0,40,0.00,,,0.00,1097,Wunderground v.1.15,2015-05-04 17:33:00,
2015-05-04 13:38:00,76.9,50.7,30.31,NW,320,0.0,12.0,40,0.00,,,0.00,1116,Wunderground v.1.15,2015-05-04 17:38:00,
2015-05-04 13:43:00,77.2,51.0,30.31,West,277,3.0,10.0,40,0.00,,,0.00,1146,Wunderground v.1.15,2015-05-04 17:43:00,
2015-05-04 13:48:00,77.5,51.9,30.30,NW,325,0.0,10.0,41,0.00,,,0.00,1120,Wunderground v.1.15,2015-05-04 17:48:00,
2015-05-04 13:53:00,77.7,50.8,30.30,WNW,284,6.0,10.0,39,0.00,,,0.00,1146,Wunderground v.1.15,2015-05-04 17:53:00,
2015-05-04 13:58:00,77.8,52.9,30.30,West,261,0.0,10.0,42,0.00,,,0.00,1157,Wunderground v.1.15,2015-05-04 17:58:00,
2015-05-04 14:03:00,78.5,53.5,30.30,SW,232,5.0,7.0,42,0.00,,,0.00,1130,Wunderground v.1.15,2015-05-04 18:03:00,
2015-05-04 14:08:00,78.9,51.1,30.30,South,174,5.0,7.0,38,0.00,,,0.00,1120,Wunderground v.1.15,2015-05-04 18:08:00,
2015-05-04 14:13:00,78.8,50.3,30.30,SW,227,2.0,4.0,37,0.00,,,0.00,236,Wunderground v.1.15,2015-05-04 18:13:00,
2015-05-04 14:18:00,78.4,52.1,30.30,SSW,206,4.0,5.0,40,0.00,,,0.00,241,Wunderground v.1.15,2015-05-04 18:18:00,
2015-05-04 14:23:00,77.8,50.9,30.30,South,185,0.0,6.0,39,0.00,,,0.00,276,Wunderground v.1.15,2015-05-04 18:23:00,
2015-05-04 14:28:00,77.5,49.9,30.30,NW,310,2.0,6.0,38,0.00,,,0.00,299,Wunderground v.1.15,2015-05-04 18:28:00,
2015-05-04 14:33:00,77.0,50.8,30.29,NW,312,0.0,3.0,40,0.00,,,0.00,515,Wunderground v.1.15,2015-05-04 18:33:00,
2015-05-04 14:38:00,77.3,51.8,30.29,WNW,288,5.0,7.0,41,0.00,,,0.00,1121,Wunderground v.1.15,2015-05-04 18:38:00,
2015-05-04 14:43:00,77.0,50.8,30.29,WNW,300,4.0,5.0,40,0.00,,,0.00,345,Wunderground v.1.15,2015-05-04 18:43:00,
2015-05-04 14:48:00,76.6,50.5,30.29,WSW,254,0.0,5.0,40,0.00,,,0.00,251,Wunderground v.1.15,2015-05-04 18:48:00,
2015-05-04 14:53:00,76.3,50.2,30.29,WNW,294,0.0,2.0,40,0.00,,,0.00,257,Wunderground v.1.15,2015-05-04 18:53:00,
2015-05-04 14:58:00,76.2,49.4,30.28,WNW,294,0.0,2.0,39,0.00,,,0.00,315,Wunderground v.1.15,2015-05-04 18:58:00,
2015-05-04 15:03:00,76.1,52.0,30.28,WNW,286,2.0,3.0,43,0.00,,,0.00,338,Wunderground v.1.15,2015-05-04 19:03:00,
2015-05-04 15:08:00,76.2,50.8,30.28,NW,317,2.0,4.0,41,0.00,,,0.00,443,Wunderground v.1.15,2015-05-04 19:08:00,
2015-05-04 15:13:00,76.6,53.1,30.28,NW,320,2.0,6.0,44,0.00,,,0.00,1134,Wunderground v.1.15,2015-05-04 19:13:00,
2015-05-04 15:18:00,77.0,52.1,30.28,NW,317,5.0,6.0,42,0.00,,,0.00,722,Wunderground v.1.15,2015-05-04 19:18:00,
2015-05-04 15:23:00,77.0,51.5,30.28,North,355,5.0,6.0,41,0.00,,,0.00,1106,Wunderground v.1.15,2015-05-04 19:23:00,
2015-05-04 15:28:00,76.9,49.4,30.28,SW,215,0.0,6.0,38,0.00,,,0.00,353,Wunderground v.1.15,2015-05-04 19:28:00,
2015-05-04 15:33:00,77.1,50.2,30.28,NNE,14,0.0,2.0,39,0.00,,,0.00,348,Wunderground v.1.15,2015-05-04 19:33:00,
2015-05-04 15:38:00,77.0,50.8,30.27,WNW,290,2.0,5.0,40,0.00,,,0.00,313,Wunderground v.1.15,2015-05-04 19:38:00,
2015-05-04 15:43:00,76.7,49.9,30.27,WNW,300,0.0,4.0,39,0.00,,,0.00,294,Wunderground v.1.15,2015-05-04 19:43:00,
2015-05-04 15:48:00,76.6,50.5,30.27,NW,304,0.0,4.0,40,0.00,,,0.00,301,Wunderground v.1.15,2015-05-04 19:48:00,
2015-05-04 15:53:00,76.6,49.8,30.27,NW,304,0.0,0.0,39,0.00,,,0.00,267,Wunderground v.1.15,2015-05-04 19:53:00,
2015-05-04 15:58:00,76.7,51.2,30.27,SSE,165,0.0,0.0,41,0.00,,,0.00,278,Wunderground v.1.15,2015-05-04 19:58:00,
2015-05-04 16:03:00,76.7,51.9,30.27,SSE,150,0.0,6.0,42,0.00,,,0.00,225,Wunderground v.1.15,2015-05-04 20:03:00,
2015-05-04 16:08:00,76.7,52.5,30.27,South,169,4.0,6.0,43,0.00,,,0.00,234,Wunderground v.1.15,2015-05-04 20:08:00,
2015-05-04 16:13:00,76.6,51.1,30.26,South,182,0.0,1.0,41,0.00,,,0.00,246,Wunderground v.1.15,2015-05-04 20:13:00,
2015-05-04 16:18:00,76.6,50.5,30.26,SSE,165,0.0,1.0,40,0.00,,,0.00,325,Wunderground v.1.15,2015-05-04 20:18:00,
2015-05-04 16:23:00,76.6,52.4,30.26,SSW,198,0.0,5.0,43,0.00,,,0.00,436,Wunderground v.1.15,2015-05-04 20:23:00,
2015-05-04 16:28:00,77.2,52.3,30.26,WNW,291,0.0,5.0,42,0.00,,,0.00,784,Wunderground v.1.15,2015-05-04 20:28:00,
2015-05-04 16:33:00,77.7,50.1,30.26,South,174,0.0,0.0,38,0.00,,,0.00,163,Wunderground v.1.15,2015-05-04 20:33:00,
2015-05-04 16:38:00,77.9,51.6,30.26,South,174,0.0,0.0,40,0.00,,,0.00,151,Wunderground v.1.15,2015-05-04 20:38:00,
2015-05-04 16:43:00,77.8,51.5,30.25,WNW,295,0.0,3.0,40,0.00,,,0.00,146,Wunderground v.1.15,2015-05-04 20:43:00,
2015-05-04 16:48:00,77.6,52.0,30.25,SSE,150,0.0,3.0,41,0.00,,,0.00,141,Wunderground v.1.15,2015-05-04 20:48:00,
2015-05-04 16:53:00,77.3,53.7,30.25,SSE,150,0.0,0.0,44,0.00,,,0.00,165,Wunderground v.1.15,2015-05-04 20:53:00,
2015-05-04 16:58:00,77.3,55.5,30.25,SSE,150,0.0,0.0,47,0.00,,,0.00,668,Wunderground v.1.15,2015-05-04 20:58:00,
2015-05-04 17:08:00,77.2,51.7,30.25,SW,228,0.0,2.0,41,0.00,,,0.00,190,Wunderground v.1.15,2015-05-04 21:08:00,
2015-05-04 17:13:00,77.5,51.9,30.25,West,261,0.0,1.0,41,0.00,,,0.00,622,Wunderground v.1.15,2015-05-04 21:13:00,
2015-05-04 17:18:00,78.0,52.4,30.25,West,275,0.0,6.0,41,0.00,,,0.00,605,Wunderground v.1.15,2015-05-04 21:18:00,
2015-05-04 17:23:00,78.4,51.4,30.24,WNW,292,0.0,1.0,39,0.00,,,0.00,571,Wunderground v.1.15,2015-05-04 21:23:00,
2015-05-04 17:28:00,78.4,50.7,30.24,WSW,254,0.0,6.0,38,0.00,,,0.00,114,Wunderground v.1.15,2015-05-04 21:28:00,
2015-05-04 17:33:00,78.0,50.3,30.25,SSW,213,0.0,2.0,38,0.00,,,0.00,538,Wunderground v.1.15,2015-05-04 21:33:00,
2015-05-04 17:38:00,78.0,49.6,30.25,South,171,0.0,4.0,37,0.00,,,0.00,508,Wunderground v.1.15,2015-05-04 21:38:00,
2015-05-04 17:43:00,78.2,50.5,30.24,South,172,0.0,0.0,38,0.00,,,0.00,504,Wunderground v.1.15,2015-05-04 21:43:00,
2015-05-04 17:48:00,78.5,51.5,30.25,SW,221,0.0,7.0,39,0.00,,,0.00,483,Wunderground v.1.15,2015-05-04 21:48:00,
2015-05-04 17:53:00,78.8,50.3,30.25,SW,236,1.0,5.0,37,0.00,,,0.00,482,Wunderground v.1.15,2015-05-04 21:53:00,
2015-05-04 17:58:00,79.1,50.6,30.24,WNW,289,0.0,5.0,37,0.00,,,0.00,478,Wunderground v.1.15,2015-05-04 21:58:00,
2015-05-04 18:03:00,79.4,50.1,30.24,North,5,0.0,0.0,36,0.00,,,0.00,362,Wunderground v.1.15,2015-05-04 22:03:00,
2015-05-04 18:08:00,79.6,53.8,30.24,SSW,202,2.0,6.0,41,0.00,,,0.00,427,Wunderground v.1.15,2015-05-04 22:08:00,
2015-05-04 18:14:00,79.7,53.2,30.24,South,186,3.0,5.0,40,0.00,,,0.00,415,Wunderground v.1.15,2015-05-04 22:14:00,
2015-05-04 18:19:00,79.7,51.1,30.24,SSW,203,2.0,5.0,37,0.00,,,0.00,404,Wunderground v.1.15,2015-05-04 22:19:00,
2015-05-04 18:24:00,79.9,52.7,30.24,SSW,203,0.0,1.0,39,0.00,,,0.00,390,Wunderground v.1.15,2015-05-04 22:24:00,
2015-05-04 18:29:00,79.9,51.3,30.24,NW,309,1.0,5.0,37,0.00,,,0.00,371,Wunderground v.1.15,2015-05-04 22:29:00,
2015-05-04 18:34:00,79.8,53.3,30.24,WNW,289,2.0,5.0,40,0.00,,,0.00,348,Wunderground v.1.15,2015-05-04 22:34:00,
2015-05-04 18:39:00,79.6,51.8,30.24,NW,314,5.0,5.0,38,0.00,,,0.00,330,Wunderground v.1.15,2015-05-04 22:39:00,
2015-05-04 18:44:00,79.3,50.0,30.24,NW,305,3.0,6.0,36,0.00,,,0.00,320,Wunderground v.1.15,2015-05-04 22:44:00,
2015-05-04 18:49:00,78.9,51.1,30.24,NW,309,0.0,6.0,38,0.00,,,0.00,290,Wunderground v.1.15,2015-05-04 22:49:00,
2015-05-04 18:54:00,78.7,50.2,30.24,WNW,287,3.0,5.0,37,0.00,,,0.00,288,Wunderground v.1.15,2015-05-04 22:54:00,
2015-05-04 18:59:00,78.6,50.9,30.24,WNW,287,0.0,5.0,38,0.00,,,0.00,290,Wunderground v.1.15,2015-05-04 22:59:00,
2015-05-04 19:04:00,78.7,51.7,30.24,WNW,288,0.0,1.0,39,0.00,,,0.00,250,Wunderground v.1.15,2015-05-04 23:04:00,
2015-05-04 19:09:00,78.7,51.7,30.24,SE,138,0.0,5.0,39,0.00,,,0.00,225,Wunderground v.1.15,2015-05-04 23:09:00,
2015-05-04 19:14:00,78.5,51.5,30.24,ESE,108,4.0,7.0,39,0.00,,,0.00,192,Wunderground v.1.15,2015-05-04 23:14:00,
2015-05-04 19:19:00,78.2,51.2,30.24,SE,133,0.0,7.0,39,0.00,,,0.00,160,Wunderground v.1.15,2015-05-04 23:19:00,
2015-05-04 19:24:00,77.8,51.5,30.24,SE,142,5.0,10.0,40,0.00,,,0.00,130,Wunderground v.1.15,2015-05-04 23:24:00,
2015-05-04 19:29:00,77.2,51.0,30.24,South,169,1.0,10.0,40,0.00,,,0.00,114,Wunderground v.1.15,2015-05-04 23:29:00,
2015-05-04 19:34:00,76.8,51.3,30.24,ESE,107,0.0,4.0,41,0.00,,,0.00,95,Wunderground v.1.15,2015-05-04 23:34:00,
2015-05-04 19:39:00,76.3,50.9,30.24,SE,146,5.0,6.0,41,0.00,,,0.00,79,Wunderground v.1.15,2015-05-04 23:39:00,
2015-05-04 19:44:00,75.9,50.5,30.24,SSE,159,0.0,6.0,41,0.00,,,0.00,65,Wunderground v.1.15,2015-05-04 23:44:00,
2015-05-04 19:49:00,75.8,52.9,30.24,SSE,159,0.0,6.0,45,0.00,,,0.00,51,Wunderground v.1.15,2015-05-04 23:49:00,
2015-05-04 19:54:00,75.7,54.6,30.24,SSE,159,0.0,1.0,48,0.00,,,0.00,40,Wunderground v.1.15,2015-05-04 23:54:00,
2015-05-04 19:59:00,75.1,55.2,30.24,SSE,159,0.0,1.0,50,0.00,,,0.00,30,Wunderground v.1.15,2015-05-04 23:59:00,
2015-05-04 20:04:00,74.3,54.5,30.25,SSE,159,0.0,5.0,50,0.00,,,0.00,23,Wunderground v.1.15,2015-05-05 00:04:00,
2015-05-04 20:09:00,73.9,54.6,30.25,SSE,159,0.0,5.0,51,0.00,,,0.00,18,Wunderground v.1.15,2015-05-05 00:09:00,
2015-05-04 20:14:00,73.2,54.0,30.25,SSE,159,0.0,0.0,51,0.00,,,0.00,12,Wunderground v.1.15,2015-05-05 00:14:00,
2015-05-04 20:19:00,72.3,54.2,30.25,SSE,159,2.0,2.0,53,0.00,,,0.00,9,Wunderground v.1.15,2015-05-05 00:19:00,
2015-05-04 20:24:00,71.3,52.2,30.25,SSE,166,0.0,5.0,51,0.00,,,0.00,5,Wunderground v.1.15,2015-05-05 00:24:00,
2015-05-04 20:29:00,70.8,52.8,30.25,SSE,166,0.0,5.0,53,0.00,,,0.00,0,Wunderground v.1.15,2015-05-05 00:29:00,
2015-05-04 20:34:00,70.0,53.1,30.25,SSE,166,0.0,1.0,55,0.00,,,0.00,0,Wunderground v.1.15,2015-05-05 00:34:00,
2015-05-04 20:39:00,69.5,52.6,30.25,SSE,166,0.0,1.0,55,0.00,,,0.00,0,Wunderground v.1.15,2015-05-05 00:39:00,
2015-05-04 20:44:00,69.2,52.3,30.25,SSE,166,0.0,0.0,55,0.00,,,0.00,0,Wunderground v.1.15,2015-05-05 00:44:00,
2015-05-04 20:49:00,68.9,52.1,30.25,SSE,166,0.0,0.0,55,0.00,,,0.00,0,Wunderground v.1.15,2015-05-05 00:49:00,
2015-05-04 20:54:00,68.5,52.2,30.26,SSE,166,0.0,0.0,56,0.00,,,0.00,0,Wunderground v.1.15,2015-05-05 00:54:00,
2015-05-04 20:59:00,68.2,51.9,30.26,SSE,166,0.0,0.0,56,0.00,,,0.00,0,Wunderground v.1.15,2015-05-05 00:59:00,
2015-05-04 21:04:00,67.8,52.0,30.26,SSE,166,0.0,0.0,57,0.00,,,0.00,0,Wunderground v.1.15,2015-05-05 01:04:00,
2015-05-04 21:09:00,67.1,51.4,30.27,SSE,166,0.0,0.0,57,0.00,,,0.00,0,Wunderground v.1.15,2015-05-05 01:09:00,
2015-05-04 21:14:00,66.8,51.1,30.27,SSE,166,0.0,0.0,57,0.00,,,0.00,0,Wunderground v.1.15,2015-05-05 01:14:00,
2015-05-04 21:19:00,66.3,50.6,30.27,SSE,166,0.0,0.0,57,0.00,,,0.00,0,Wunderground v.1.15,2015-05-05 01:19:00,
2015-05-04 21:24:00,65.4,49.8,30.27,SSE,166,0.0,0.0,57,0.00,,,0.00,0,Wunderground v.1.15,2015-05-05 01:24:00,
2015-05-04 21:29:00,64.5,48.4,30.27,SSE,166,0.0,0.0,56,0.00,,,0.00,0,Wunderground v.1.15,2015-05-05 01:29:00,
2015-05-04 21:34:00,64.1,47.1,30.28,SSE,166,0.0,0.0,54,0.00,,,0.00,0,Wunderground v.1.15,2015-05-05 01:34:00,
2015-05-04 21:39:00,63.6,46.1,30.28,SSE,166,0.0,0.0,53,0.00,,,0.00,0,Wunderground v.1.15,2015-05-05 01:39:00,
2015-05-04 21:44:00,63.2,45.3,30.28,SSE,166,0.0,0.0,52,0.00,,,0.00,0,Wunderground v.1.15,2015-05-05 01:44:00,
2015-05-04 21:49:00,62.9,45.0,30.28,SSE,166,0.0,0.0,52,0.00,,,0.00,0,Wunderground v.1.15,2015-05-05 01:49:00,
2015-05-04 21:54:00,62.7,43.8,30.29,SSE,166,0.0,0.0,50,0.00,,,0.00,0,Wunderground v.1.15,2015-05-05 01:54:00,
2015-05-04 21:59:00,62.6,43.7,30.29,SSE,166,0.0,0.0,50,0.00,,,0.00,0,Wunderground v.1.15,2015-05-05 01:59:00,
2015-05-04 22:04:00,62.4,42.4,30.29,SSE,166,0.0,0.0,48,0.00,,,0.00,0,Wunderground v.1.15,2015-05-05 02:04:00,
2015-05-04 22:09:00,62.3,42.3,30.29,SSE,166,0.0,0.0,48,0.00,,,0.00,0,Wunderground v.1.15,2015-05-05 02:09:00,
2015-05-04 22:14:00,62.0,42.6,30.29,SSE,166,0.0,0.0,49,0.00,,,0.00,0,Wunderground v.1.15,2015-05-05 02:14:00,
2015-05-04 22:19:00,61.8,41.3,30.30,SSE,166,0.0,0.0,47,0.00,,,0.00,0,Wunderground v.1.15,2015-05-05 02:19:00,
2015-05-04 22:25:00,61.5,41.1,30.30,SSE,166,0.0,0.0,47,0.00,,,0.00,0,Wunderground v.1.15,2015-05-05 02:25:00,
2015-05-04 22:30:00,61.3,40.9,30.30,SSE,166,0.0,0.0,47,0.00,,,0.00,0,Wunderground v.1.15,2015-05-05 02:30:00,
2015-05-04 22:35:00,60.8,39.3,30.30,SSE,166,0.0,0.0,45,0.00,,,0.00,0,Wunderground v.1.15,2015-05-05 02:35:00,
2015-05-04 22:40:00,60.2,36.4,30.31,SSE,166,0.0,0.0,41,0.00,,,0.00,0,Wunderground v.1.15,2015-05-05 02:40:00,
2015-05-04 22:45:00,59.8,32.8,30.31,SSE,166,0.0,0.0,36,0.00,,,0.00,0,Wunderground v.1.15,2015-05-05 02:45:00,
2015-05-04 22:50:00,59.7,31.3,30.31,SSE,166,0.0,0.0,34,0.00,,,0.00,0,Wunderground v.1.15,2015-05-05 02:50:00,
2015-05-04 22:55:00,59.5,28.8,30.31,SSE,166,0.0,0.0,31,0.00,,,0.00,0,Wunderground v.1.15,2015-05-05 02:55:00,
2015-05-04 23:00:00,59.1,26.0,30.32,SSE,166,0.0,0.0,28,0.00,,,0.00,0,Wunderground v.1.15,2015-05-05 03:00:00,